createdAt,value
2018-10-17T00:01:50.973Z,13.57
2018-10-17T00:04:20.325Z,12.63
2018-10-17T00:06:49.624Z,14.20
2018-10-17T00:09:18.790Z,13.27
2018-10-17T00:11:47.941Z,12.87
2018-10-17T00:14:17.141Z,14.80
2018-10-17T00:16:46.413Z,12.67
2018-10-17T00:19:15.651Z,13.37
2018-10-17T00:21:44.813Z,14.30
2018-10-17T00:24:13.988Z,12.50
2018-10-17T00:26:43.264Z,14.00
2018-10-17T00:29:12.473Z,12.83
2018-10-17T00:31:41.604Z,14.67
2018-10-17T00:34:10.851Z,15.73
2018-10-17T00:36:40.006Z,12.10
2018-10-17T00:39:10.832Z,14.67
2018-10-17T00:41:40.273Z,13.60
2018-10-17T00:44:09.451Z,15.00
2018-10-17T00:46:38.625Z,13.57
2018-10-17T00:49:07.800Z,14.07
2018-10-17T00:51:36.981Z,14.43
2018-10-17T00:54:06.943Z,12.57
2018-10-17T00:56:36.102Z,14.33
2018-10-17T00:59:16.376Z,12.73
2018-10-17T01:01:45.464Z,12.57
2018-10-17T01:04:14.636Z,13.00
2018-10-17T01:06:43.826Z,13.70
2018-10-17T01:09:14.818Z,11.83
2018-10-17T01:11:44.009Z,12.27
2018-10-17T01:14:13.171Z,11.93
2018-10-17T01:16:42.357Z,12.17
2018-10-17T01:19:11.577Z,13.20
2018-10-17T01:21:40.669Z,14.00
2018-10-17T01:24:09.845Z,13.17
2018-10-17T01:26:38.987Z,14.33
2018-10-17T01:29:08.213Z,13.07
2018-10-17T01:31:37.341Z,12.33
2018-10-17T01:34:06.494Z,11.80
2018-10-17T01:36:35.908Z,11.47
2018-10-17T01:39:07.856Z,12.13
2018-10-17T01:41:37.045Z,12.13
2018-10-17T01:44:06.973Z,17.90
2018-10-17T01:46:36.393Z,14.20
2018-10-17T01:49:05.785Z,12.40
2018-10-17T01:51:34.970Z,11.23
2018-10-17T01:54:04.136Z,11.23
2018-10-17T01:56:33.310Z,13.37
2018-10-17T01:59:02.584Z,11.50
2018-10-17T02:01:31.705Z,11.03
2018-10-17T02:04:00.901Z,11.07
2018-10-17T02:06:30.073Z,11.10
2018-10-17T02:08:59.250Z,12.03
2018-10-17T02:11:28.494Z,11.27
2018-10-17T02:13:57.672Z,11.27
2018-10-17T02:16:26.867Z,11.97
2018-10-17T02:18:56.119Z,11.13
2018-10-17T02:21:25.220Z,11.63
2018-10-17T02:23:54.385Z,11.00
2018-10-17T02:26:23.534Z,12.93
2018-10-17T02:28:52.817Z,11.60
2018-10-17T02:31:21.936Z,13.40
2018-10-17T02:33:51.101Z,11.53
2018-10-17T02:36:20.273Z,11.93
2018-10-17T02:38:49.450Z,11.33
2018-10-17T02:41:18.704Z,11.97
2018-10-17T02:43:47.822Z,12.03
2018-10-17T02:46:23.763Z,11.93
2018-10-17T02:48:53.023Z,11.87
2018-10-17T02:51:22.176Z,11.83
2018-10-17T02:53:51.373Z,13.10
2018-10-17T02:56:20.542Z,10.90
2018-10-17T02:58:49.740Z,12.37
2018-10-17T03:01:18.991Z,11.70
2018-10-17T03:03:48.061Z,12.67
2018-10-17T03:06:17.272Z,10.83
2018-10-17T03:08:46.454Z,11.93
2018-10-17T03:11:15.661Z,14.27
2018-10-17T03:13:44.765Z,12.73
2018-10-17T03:16:13.923Z,14.80
2018-10-17T03:18:43.085Z,11.90
2018-10-17T03:21:12.303Z,12.97
2018-10-17T03:23:41.493Z,11.53
2018-10-17T03:26:10.678Z,12.13
2018-10-17T03:28:39.815Z,13.67
2018-10-17T03:31:09.113Z,12.70
2018-10-17T03:33:38.261Z,12.90
2018-10-17T03:36:07.471Z,13.47
2018-10-17T03:38:36.641Z,14.43
2018-10-17T03:41:05.909Z,11.93
2018-10-17T03:43:35.084Z,12.13
2018-10-17T03:46:04.304Z,12.90
2018-10-17T03:48:33.528Z,13.97
2018-10-17T03:51:02.760Z,13.03
2018-10-17T03:53:32.449Z,13.20
2018-10-17T03:56:01.686Z,14.70
2018-10-17T03:58:30.841Z,12.83
2018-10-17T04:01:00.059Z,11.77
2018-10-17T04:03:29.189Z,12.00
2018-10-17T04:05:58.333Z,12.07
2018-10-17T04:08:27.821Z,12.50
2018-10-17T04:10:57.051Z,12.40
2018-10-17T04:13:26.341Z,12.50
2018-10-17T04:15:55.563Z,14.17
2018-10-17T04:18:25.533Z,14.03
2018-10-17T04:20:54.980Z,13.80
2018-10-17T04:23:24.188Z,12.50
2018-10-17T04:25:53.376Z,14.07
2018-10-17T04:28:22.656Z,16.77
2018-10-17T04:30:51.817Z,14.23
2018-10-17T04:33:20.994Z,16.33
2018-10-17T04:35:50.165Z,15.80
2018-10-17T04:38:19.444Z,12.93
2018-10-17T04:40:48.689Z,14.20
2018-10-17T04:43:17.938Z,15.60
2018-10-17T04:45:47.107Z,13.30
2018-10-17T04:48:34.028Z,14.10
2018-10-17T04:51:03.196Z,14.10
2018-10-17T04:53:32.448Z,15.40
2018-10-17T04:56:01.677Z,18.17
2018-10-17T04:58:30.845Z,16.13
2018-10-17T05:01:00.218Z,15.67
2018-10-17T05:03:29.325Z,15.60
2018-10-17T05:05:58.817Z,13.47
2018-10-17T05:08:27.973Z,15.00
2018-10-17T05:10:57.288Z,15.03
2018-10-17T05:13:26.624Z,14.80
2018-10-17T05:15:55.877Z,13.37
2018-10-17T05:18:25.140Z,15.87
2018-10-17T05:20:54.314Z,13.57
2018-10-17T05:23:23.588Z,15.33
2018-10-17T05:25:52.834Z,14.90
2018-10-17T05:28:22.081Z,17.43
2018-10-17T05:30:51.287Z,16.57
2018-10-17T05:33:20.456Z,18.70
2018-10-17T05:35:49.819Z,15.73
2018-10-17T05:38:19.036Z,17.43
2018-10-17T05:40:48.263Z,19.20
2018-10-17T05:43:17.706Z,19.83
2018-10-17T05:45:46.950Z,17.33
2018-10-17T05:48:16.100Z,20.40
2018-10-17T05:50:45.269Z,17.50
2018-10-17T05:53:14.511Z,22.03
2018-10-17T05:55:43.761Z,22.03
2018-10-17T05:58:12.958Z,23.37
2018-10-17T06:00:42.259Z,21.13
2018-10-17T06:03:11.522Z,21.07
2018-10-17T06:05:40.728Z,19.83
2018-10-17T06:08:09.932Z,22.67
2018-10-17T06:10:39.082Z,23.20
2018-10-17T06:13:08.303Z,20.13
2018-10-17T06:15:37.494Z,30.10
2018-10-17T06:18:06.822Z,30.57
2018-10-17T06:20:36.101Z,24.30
2018-10-17T06:23:05.573Z,21.00
2018-10-17T06:25:34.882Z,20.87
2018-10-17T06:28:04.510Z,25.13
2018-10-17T06:30:33.716Z,26.53
2018-10-17T06:33:02.911Z,21.40
2018-10-17T06:35:32.115Z,22.73
2018-10-17T06:38:01.258Z,24.03
2018-10-17T06:40:30.438Z,30.90
2018-10-17T06:42:59.623Z,31.90
2018-10-17T06:45:28.769Z,25.27
2018-10-17T06:47:58.034Z,82.90
2018-10-17T06:50:27.177Z,61.47
2018-10-17T06:52:56.350Z,21.70
2018-10-17T06:55:25.547Z,20.43
2018-10-17T06:57:54.889Z,26.03
2018-10-17T07:00:24.061Z,19.70
2018-10-17T07:02:53.243Z,22.53
2018-10-17T07:05:22.777Z,20.00
2018-10-17T07:07:51.970Z,18.90
2018-10-17T07:10:21.208Z,18.23
2018-10-17T07:12:50.365Z,18.67
2018-10-17T07:15:19.645Z,26.13
2018-10-17T07:17:48.794Z,44.87
2018-10-17T07:20:17.964Z,19.17
2018-10-17T07:22:47.129Z,19.03
2018-10-17T07:25:16.366Z,19.40
2018-10-17T07:27:45.558Z,17.77
2018-10-17T07:30:14.764Z,17.80
2018-10-17T07:32:43.943Z,17.27
2018-10-17T07:35:13.152Z,18.10
2018-10-17T07:37:42.317Z,51.10
2018-10-17T07:40:11.494Z,30.57
2018-10-17T07:42:40.638Z,16.93
2018-10-17T07:45:09.902Z,13.43
2018-10-17T07:47:39.146Z,19.10
2018-10-17T07:50:09.446Z,15.27
2018-10-17T07:52:38.667Z,17.13
2018-10-17T07:55:10.519Z,13.23
2018-10-17T07:57:39.873Z,15.37
2018-10-17T08:00:13.180Z,14.73
2018-10-17T08:02:42.375Z,18.27
2018-10-17T08:05:11.588Z,19.87
2018-10-17T08:07:40.812Z,16.73
2018-10-17T08:10:10.923Z,17.53
2018-10-17T08:12:40.240Z,16.67
2018-10-17T08:15:10.115Z,16.37
2018-10-17T08:17:39.352Z,15.13
2018-10-17T08:20:10.925Z,16.35
2018-10-17T08:22:40.157Z,16.85
2018-10-17T08:25:10.957Z,16.50
2018-10-17T08:27:40.313Z,13.15
2018-10-17T08:30:10.333Z,19.55
2018-10-17T08:32:40.053Z,15.90
2018-10-17T08:35:09.578Z,13.13
2018-10-17T08:37:39.101Z,12.13
2018-10-17T08:40:08.015Z,16.15
2018-10-17T08:42:37.249Z,11.78
2018-10-17T08:45:06.982Z,16.35
2018-10-17T08:47:36.105Z,12.65
2018-10-17T08:50:05.319Z,18.80
2018-10-17T08:52:34.473Z,16.93
2018-10-17T08:55:03.677Z,15.90
2018-10-17T08:57:32.899Z,14.70
2018-10-17T09:00:02.081Z,17.32
2018-10-17T09:02:31.242Z,18.40
2018-10-17T09:05:00.433Z,19.27
2018-10-17T09:07:29.606Z,19.40
2018-10-17T09:09:58.799Z,18.48
2018-10-17T09:12:28.126Z,17.45
2018-10-17T09:14:57.401Z,21.57
2018-10-17T09:17:26.577Z,17.27
2018-10-17T09:19:56.021Z,17.15
2018-10-17T09:22:26.329Z,17.87
2018-10-17T09:24:55.248Z,15.38
2018-10-17T09:27:24.464Z,20.00
2018-10-17T09:29:53.736Z,18.15
2018-10-17T09:32:22.900Z,18.77
2018-10-17T09:34:52.105Z,13.98
2018-10-17T09:37:21.286Z,26.65
2018-10-17T09:39:50.499Z,14.93
2018-10-17T09:42:19.745Z,16.95
2018-10-17T09:44:48.845Z,13.08
2018-10-17T09:47:18.106Z,14.10
2018-10-17T09:49:47.293Z,15.05
2018-10-17T09:52:23.193Z,11.50
2018-10-17T09:54:52.774Z,14.78
2018-10-17T09:57:22.031Z,13.40
2018-10-17T09:59:51.291Z,14.10
2018-10-17T10:02:20.792Z,13.72
2018-10-17T10:04:50.041Z,12.47
2018-10-17T10:07:19.205Z,12.15
2018-10-17T10:09:48.353Z,12.60
2018-10-17T10:12:17.554Z,12.98
2018-10-17T10:14:46.752Z,13.38
2018-10-17T10:17:16.044Z,11.85
2018-10-17T10:19:45.217Z,9.78
2018-10-17T10:22:14.398Z,27.67
2018-10-17T10:24:43.658Z,12.45
2018-10-17T10:27:12.834Z,11.95
2018-10-17T10:29:42.120Z,10.23
2018-10-17T10:32:11.201Z,11.85
2018-10-17T10:34:40.419Z,11.88
2018-10-17T10:37:09.632Z,11.80
2018-10-17T10:39:38.966Z,9.88
2018-10-17T10:42:08.152Z,10.08
2018-10-17T10:44:37.335Z,10.65
2018-10-17T10:47:06.721Z,9.58
2018-10-17T10:49:35.865Z,9.35
2018-10-17T10:52:05.316Z,9.55
2018-10-17T10:54:34.465Z,9.38
2018-10-17T10:57:03.630Z,10.68
2018-10-17T10:59:33.090Z,10.23
2018-10-17T11:02:02.047Z,12.18
2018-10-17T11:04:31.178Z,9.50
2018-10-17T11:07:00.349Z,9.20
2018-10-17T11:09:29.545Z,10.55
2018-10-17T11:11:58.745Z,9.60
2018-10-17T11:14:28.014Z,10.50
2018-10-17T11:16:57.057Z,9.95
2018-10-17T11:19:26.213Z,8.95
2018-10-17T11:21:55.474Z,9.08
2018-10-17T11:24:24.646Z,10.25
2018-10-17T11:26:53.805Z,10.03
2018-10-17T11:29:22.988Z,12.35
2018-10-17T11:31:52.265Z,10.30
2018-10-17T11:34:21.375Z,14.63
2018-10-17T11:36:50.562Z,10.23
2018-10-17T11:39:19.721Z,10.88
2018-10-17T11:41:48.898Z,11.68
2018-10-17T11:44:18.104Z,10.75
2018-10-17T11:46:47.277Z,11.57
2018-10-17T11:49:16.492Z,10.00
2018-10-17T11:51:45.657Z,23.75
2018-10-17T11:54:14.893Z,15.50
2018-10-17T11:56:44.295Z,10.40
2018-10-17T11:59:13.578Z,11.93
2018-10-17T12:01:42.657Z,13.22
2018-10-17T12:04:12.051Z,11.90
2018-10-17T12:06:41.004Z,13.43
2018-10-17T12:09:10.625Z,12.93
2018-10-17T12:11:40.094Z,12.65
2018-10-17T12:14:09.318Z,18.23
2018-10-17T12:16:38.482Z,10.60
2018-10-17T12:19:07.972Z,10.18
2018-10-17T12:21:37.149Z,10.03
2018-10-17T12:24:06.464Z,13.32
2018-10-17T12:26:35.597Z,9.08
2018-10-17T12:29:04.847Z,10.98
2018-10-17T12:31:33.997Z,11.90
2018-10-17T12:34:03.171Z,10.43
2018-10-17T12:36:32.329Z,9.20
2018-10-17T12:39:01.551Z,9.28
2018-10-17T12:41:30.755Z,13.93
2018-10-17T12:43:59.933Z,8.48
2018-10-17T12:46:29.142Z,8.73
2018-10-17T12:48:58.495Z,11.30
2018-10-17T12:51:27.589Z,11.57
2018-10-17T12:53:56.729Z,9.43
2018-10-17T12:56:25.885Z,8.75
2018-10-17T12:58:55.269Z,11.18
2018-10-17T13:01:24.409Z,11.30
2018-10-17T13:03:53.869Z,9.50
2018-10-17T13:06:23.026Z,17.98
2018-10-17T13:08:52.192Z,14.28
2018-10-17T13:11:21.450Z,15.40
2018-10-17T13:13:50.499Z,10.95
2018-10-17T13:16:19.650Z,11.15
2018-10-17T13:18:48.788Z,12.18
2018-10-17T13:21:17.945Z,12.73
2018-10-17T13:23:47.126Z,13.58
2018-10-17T13:26:16.291Z,10.28
2018-10-17T13:28:45.511Z,11.40
2018-10-17T13:31:14.843Z,11.68
2018-10-17T13:33:43.903Z,9.60
2018-10-17T13:36:13.072Z,10.45
2018-10-17T13:38:42.262Z,9.48
2018-10-17T13:41:11.538Z,11.63
2018-10-17T13:43:40.608Z,9.35
2018-10-17T13:46:09.821Z,13.22
2018-10-17T13:48:39.006Z,10.82
2018-10-17T13:51:08.225Z,11.60
2018-10-17T13:53:37.416Z,11.00
2018-10-17T13:56:07.041Z,9.48
2018-10-17T13:58:36.232Z,11.53
2018-10-17T14:01:05.515Z,31.80
2018-10-17T14:03:34.649Z,13.68
2018-10-17T14:06:03.870Z,11.35
2018-10-17T14:08:33.097Z,10.70
2018-10-17T14:11:02.235Z,13.95
2018-10-17T14:13:31.486Z,10.20
2018-10-17T14:16:00.546Z,9.53
2018-10-17T14:18:29.724Z,10.63
2018-10-17T14:20:58.893Z,10.15
2018-10-17T14:23:28.109Z,16.27
2018-10-17T14:25:57.264Z,24.82
2018-10-17T14:28:26.459Z,12.15
2018-10-17T14:30:55.630Z,13.32
2018-10-17T14:33:25.046Z,9.60
2018-10-17T14:35:54.490Z,10.03
2018-10-17T14:38:23.633Z,9.33
2018-10-17T14:40:52.931Z,11.68
2018-10-17T14:43:21.964Z,14.83
2018-10-17T14:45:51.153Z,13.45
2018-10-17T14:48:20.331Z,9.50
2018-10-17T14:50:49.503Z,11.25
2018-10-17T14:53:18.805Z,10.88
2018-10-17T14:55:48.020Z,14.20
2018-10-17T14:58:17.096Z,12.68
2018-10-17T15:00:46.241Z,13.00
2018-10-17T15:03:15.481Z,11.35
2018-10-17T15:05:44.649Z,16.25
2018-10-17T15:08:13.807Z,13.65
2018-10-17T15:10:43.262Z,14.67
2018-10-17T15:13:12.307Z,10.75
2018-10-17T15:15:44.384Z,17.07
2018-10-17T15:18:14.555Z,27.00
2018-10-17T15:20:44.025Z,14.53
2018-10-17T15:23:13.678Z,13.40
2018-10-17T15:25:42.825Z,11.70
2018-10-17T15:28:11.991Z,14.75
2018-10-17T15:30:41.157Z,13.13
2018-10-17T15:33:10.509Z,11.67
2018-10-17T15:35:39.580Z,17.40
2018-10-17T15:38:08.873Z,11.87
2018-10-17T15:40:38.062Z,11.17
2018-10-17T15:43:07.255Z,16.87
2018-10-17T15:45:36.433Z,16.53
2018-10-17T15:48:05.981Z,15.23
2018-10-17T15:50:35.107Z,17.80
2018-10-17T15:53:04.323Z,11.30
2018-10-17T15:55:33.499Z,13.73
2018-10-17T15:58:02.852Z,12.00
2018-10-17T16:00:32.064Z,12.10
2018-10-17T16:03:01.233Z,15.23
2018-10-17T16:05:30.494Z,13.47
2018-10-17T16:07:59.693Z,14.43
2018-10-17T16:10:28.850Z,13.47
2018-10-17T16:12:58.049Z,15.97
2018-10-17T16:15:27.226Z,12.17
2018-10-17T16:17:56.552Z,17.27
2018-10-17T16:20:25.657Z,16.80
2018-10-17T16:22:54.867Z,17.33
2018-10-17T16:25:23.948Z,15.57
2018-10-17T16:27:53.165Z,15.80
2018-10-17T16:30:22.731Z,17.83
2018-10-17T16:32:51.811Z,13.63
2018-10-17T16:35:20.994Z,20.03
2018-10-17T16:37:50.236Z,15.07
2018-10-17T16:40:19.469Z,18.50
2018-10-17T16:42:48.633Z,14.97
2018-10-17T16:45:17.799Z,24.53
2018-10-17T16:47:46.989Z,17.07
2018-10-17T16:50:16.299Z,14.93
2018-10-17T16:52:45.373Z,17.23
2018-10-17T16:55:14.647Z,16.53
2018-10-17T16:57:43.901Z,17.77
2018-10-17T17:00:13.516Z,14.97
2018-10-17T17:02:42.691Z,16.60
2018-10-17T17:05:13.271Z,19.87
2018-10-17T17:07:42.647Z,14.07
2018-10-17T17:10:13.084Z,20.87
2018-10-17T17:12:42.609Z,17.07
2018-10-17T17:15:12.210Z,19.90
2018-10-17T17:17:41.341Z,18.80
2018-10-17T17:20:11.609Z,19.50
2018-10-17T17:22:41.494Z,18.53
2018-10-17T17:25:10.840Z,19.63
2018-10-17T17:27:40.050Z,19.87
2018-10-17T17:30:14.639Z,20.03
2018-10-17T17:32:44.266Z,19.57
2018-10-17T17:35:13.496Z,14.67
2018-10-17T17:37:42.969Z,21.03
2018-10-17T17:40:13.585Z,17.37
2018-10-17T17:42:42.765Z,17.50
2018-10-17T17:45:11.988Z,18.20
2018-10-17T17:47:41.196Z,20.13
2018-10-17T17:50:10.787Z,17.30
2018-10-17T17:52:40.162Z,16.93
2018-10-17T17:57:47.323Z,19.37
2018-10-17T18:00:16.502Z,20.40
2018-10-17T18:02:45.701Z,23.63
2018-10-17T18:05:15.195Z,18.47
2018-10-17T18:07:44.434Z,19.03
2018-10-17T18:10:13.686Z,23.93
2018-10-17T18:12:42.848Z,20.40
2018-10-17T18:15:12.145Z,18.87
2018-10-17T18:17:41.523Z,23.87
2018-10-17T18:20:12.987Z,23.73
2018-10-17T18:22:42.275Z,24.67
2018-10-17T18:25:11.497Z,21.77
2018-10-17T18:27:42.317Z,23.20
2018-10-17T18:30:11.451Z,18.40
2018-10-17T18:32:40.969Z,21.50
2018-10-17T18:35:12.997Z,18.83
2018-10-17T18:37:42.349Z,20.30
2018-10-17T18:40:11.555Z,22.07
2018-10-17T18:42:40.751Z,20.57
2018-10-17T18:45:10.055Z,19.23
2018-10-17T18:47:39.611Z,19.63
2018-10-17T18:50:09.048Z,25.53
2018-10-17T18:52:38.285Z,24.23
2018-10-17T18:55:07.914Z,22.20
2018-10-17T18:57:37.212Z,23.27
2018-10-17T19:00:09.145Z,23.50
2018-10-17T19:02:38.403Z,24.20
2018-10-17T19:05:07.697Z,24.53
2018-10-17T19:09:01.750Z,25.27
2018-10-17T19:11:30.963Z,25.33
2018-10-17T19:14:00.161Z,25.70
2018-10-17T19:16:29.524Z,27.23
2018-10-17T19:18:58.753Z,28.67
2018-10-17T19:21:28.133Z,25.70
2018-10-17T19:23:57.449Z,30.07
2018-10-17T19:26:26.712Z,23.73
2018-10-17T19:28:56.961Z,27.50
2018-10-17T19:31:26.147Z,24.47
2018-10-17T19:33:55.406Z,24.07
2018-10-17T19:36:24.650Z,30.17
2018-10-17T19:38:53.885Z,28.73
2018-10-17T19:41:23.413Z,28.33
2018-10-17T19:43:52.613Z,29.17
2018-10-17T19:46:21.919Z,25.80
2018-10-17T19:48:51.172Z,24.73
2018-10-17T19:51:20.356Z,27.43
2018-10-17T19:53:49.702Z,26.73
2018-10-17T19:56:18.936Z,25.37
2018-10-17T19:58:48.152Z,24.73
2018-10-17T20:01:17.840Z,31.13
2018-10-17T20:03:47.072Z,24.70
2018-10-17T20:06:18.052Z,23.23
2018-10-17T20:08:47.374Z,23.33
2018-10-17T20:11:17.135Z,28.83
2018-10-17T20:13:46.383Z,24.87
2018-10-17T20:16:15.633Z,26.53
2018-10-17T20:18:44.837Z,27.77
2018-10-17T20:21:14.097Z,25.23
2018-10-17T20:23:43.288Z,28.57
2018-10-17T20:26:12.848Z,25.70
2018-10-17T20:28:42.100Z,29.47
2018-10-17T20:31:13.864Z,25.77
2018-10-17T20:33:43.261Z,27.37
2018-10-17T20:36:12.508Z,25.20
2018-10-17T20:38:41.787Z,29.13
2018-10-17T20:41:10.913Z,24.53
2018-10-17T20:43:40.182Z,26.43
2018-10-17T20:46:09.439Z,26.83
2018-10-17T20:48:38.745Z,27.60
2018-10-17T20:51:07.967Z,26.47
2018-10-17T20:53:40.568Z,27.70
2018-10-17T20:56:09.929Z,26.03
2018-10-17T20:58:39.046Z,24.73
2018-10-17T21:01:08.896Z,27.27
2018-10-17T21:03:39.010Z,32.17
2018-10-17T21:06:08.260Z,27.67
2018-10-17T21:08:37.451Z,26.37
2018-10-17T21:11:06.824Z,29.43
2018-10-17T21:13:35.984Z,26.80
2018-10-17T21:16:05.505Z,26.07
2018-10-17T21:18:34.824Z,24.37
2018-10-17T21:21:03.998Z,25.07
2018-10-17T21:23:33.261Z,26.53
2018-10-17T21:26:02.553Z,24.53
2018-10-17T21:28:31.881Z,22.83
2018-10-17T21:31:01.277Z,24.87
2018-10-17T21:33:30.482Z,24.97
2018-10-17T21:35:59.649Z,25.20
2018-10-17T21:38:28.852Z,23.47
2018-10-17T21:40:58.066Z,24.43
2018-10-17T21:43:27.281Z,26.33
2018-10-17T21:45:56.437Z,24.60
2018-10-17T21:48:25.641Z,26.40
2018-10-17T21:50:54.964Z,24.67
2018-10-17T21:53:24.169Z,25.67
2018-10-17T21:55:53.468Z,27.43
2018-10-17T21:58:22.621Z,23.73
2018-10-17T22:00:51.892Z,27.43
2018-10-17T22:03:21.582Z,25.17
2018-10-17T22:05:50.773Z,29.47
2018-10-17T22:08:19.984Z,26.47
2018-10-17T22:10:49.267Z,23.70
2018-10-17T22:13:18.426Z,26.00
2018-10-17T22:15:47.805Z,23.87
2018-10-17T22:18:17.228Z,26.07
2018-10-17T22:20:46.712Z,27.07
2018-10-17T22:23:15.927Z,27.23
2018-10-17T22:25:45.266Z,27.90
2018-10-17T22:28:14.437Z,39.77
2018-10-17T22:30:43.626Z,34.30
2018-10-17T22:33:12.861Z,24.73
2018-10-17T22:35:42.144Z,24.27
2018-10-17T22:38:11.464Z,24.23
2018-10-17T22:40:40.707Z,24.33
2018-10-17T22:43:09.921Z,24.47
2018-10-17T22:45:39.327Z,26.40
2018-10-17T22:48:08.600Z,25.13
2018-10-17T22:50:37.822Z,26.77
2018-10-17T22:53:07.000Z,23.57
2018-10-17T22:55:36.195Z,26.77
2018-10-17T22:58:05.832Z,27.27
2018-10-17T23:00:35.032Z,27.53
2018-10-17T23:03:04.198Z,25.87
2018-10-17T23:05:33.381Z,26.33
2018-10-17T23:08:02.728Z,28.00
2018-10-17T23:10:31.882Z,24.27
2018-10-17T23:13:01.055Z,26.27
2018-10-17T23:15:30.241Z,27.87
2018-10-17T23:17:59.466Z,28.53
2018-10-17T23:20:28.737Z,24.13
2018-10-17T23:22:57.888Z,25.23
2018-10-17T23:25:27.102Z,26.53
2018-10-17T23:27:56.254Z,24.03
2018-10-17T23:30:25.477Z,28.23
2018-10-17T23:32:54.717Z,23.27
2018-10-17T23:35:23.878Z,26.73
2018-10-17T23:37:53.090Z,27.47
2018-10-17T23:40:22.239Z,25.03
2018-10-17T23:42:51.394Z,25.77
2018-10-17T23:45:20.593Z,24.03
2018-10-17T23:47:49.780Z,23.73
2018-10-17T23:50:19.002Z,26.33
2018-10-17T23:52:48.069Z,23.17
2018-10-17T23:55:17.267Z,24.23
2018-10-17T23:57:46.409Z,22.33
